| Date | Time | Temp. (oF) | Dew Point (oF) | Rel. Hum. (%) | Press. (in.) | Wind Dir. | Wind Speed (mph) | Hourly Rainfall (in.) |
|
|---|---|---|---|---|---|---|---|---|---|
| 1 | 11/29 | 00:00 | 41 | 37 | 86 | 29.46 | SSW | 7 | 0.00 |
| 2 | 11/28 | 23:00 | 40 | 39 | 98 | 29.46 | WSW | 8 | 0.00 |
| 3 | 11/28 | 22:00 | 40 | 39 | 99 | 29.45 | WNW | 6 | 0.05 |
| 4 | 11/28 | 21:00 | 42 | 41 | 98 | 29.47 | WNW | 10 | 0.05 |
| 5 | 11/28 | 20:00 | 47 | 46 | 100 | 29.45 | WSW | 7 | 0.07 |
| 6 | 11/28 | 19:00 | 49 | 48 | 98 | 29.44 | WSW | 4 | 0.07 |
| 7 | 11/28 | 18:00 | 52 | 51 | 97 | 29.44 | NW | 7 | 0.18 |
| 8 | 11/28 | 17:00 | 56 | 55 | 100 | 29.43 | S | 13 | 0.17 |
| 9 | 11/28 | 16:00 | 60 | 59 | 100 | 29.41 | S | 6 | 0.05 |
| 10 | 11/28 | 15:00 | 60 | 59 | 100 | 29.46 | SSW | 22 | 0.01 |
| 11 | 11/28 | 14:00 | 60 | 59 | 100 | 29.51 | S | 17 | 0.00 |
| 12 | 11/28 | 13:00 | 57 | 57 | 100 | 29.59 | S | 16 | 0.00 |
| 13 | 11/28 | 12:00 | 55 | 54 | 100 | 29.65 | SSE | 14 | 0.01 |
| 14 | 11/28 | 11:00 | 54 | 54 | 100 | 29.71 | SSE | 13 | 0.02 |
| 15 | 11/28 | 10:00 | 52 | 51 | 100 | 29.76 | SE | 7 | 0.04 |
| 16 | 11/28 | 09:00 | 50 | 50 | 100 | 29.81 | ESE | 1 | 0.04 |
| 17 | 11/28 | 08:00 | 49 | 49 | 100 | 29.84 | ENE | 2 | 0.09 |
| 18 | 11/28 | 07:00 | 49 | 49 | 100 | 29.87 | E | 2 | 0.02 |
| 19 | 11/28 | 06:00 | 50 | 49 | 99 | 29.90 | ENE | 6 | 0.00 |
| 20 | 11/28 | 05:00 | 50 | 49 | 97 | 29.93 | SE | 0 | 0.00 |
| 21 | 11/28 | 04:00 | 50 | 48 | 96 | 29.94 | ESE | 3 | 0.00 |
| 22 | 11/28 | 03:00 | 50 | 48 | 94 | 29.97 | SE | 0 | 0.00 |
| 23 | 11/28 | 02:00 | 49 | 46 | 91 | 29.98 | SSE | 2 | 0.00 |
| 24 | 11/28 | 01:00 | 49 | 45 | 89 | 30.00 | SE | 3 | 0.00 |